Margate, South Africa
Current Conditions -  °F | °C
As of 4:00 PM on Thursday 18 Dec 2014 (Local Time) from FALE Reporting Station
Few Clouds Few Clouds  
Wind Chill: 79°   Ceiling: Unl
Heat Index: 81°   Visibility: 6mi
Dew Point: 70°   Wind: 13mph
Humidity: 74%   Direction: 70°ENE
Pressure: 29.8"   Gusts: NA
Location:  30.85°S, 30.38°E
Report Text: FALE 181400Z 07011KT 040V100 9999 FEW025CB 26/21 Q1009 NOSIG
Loading
Personal Weather Stations






























Interactive Weather Map New forecast layout! Learn more

10-Day Weather Forecast

Advertisements
Track Severe Weather on mobile